createdAt,value
2018-09-08T00:01:58.355Z,2.83
2018-09-08T00:04:25.320Z,2.93
2018-09-08T00:06:57.912Z,2.80
2018-09-08T00:09:24.863Z,2.90
2018-09-08T00:11:52.751Z,2.83
2018-09-08T00:14:19.690Z,2.93
2018-09-08T00:16:54.395Z,3.30
2018-09-08T00:19:27.188Z,3.20
2018-09-08T00:21:59.851Z,3.30
2018-09-08T00:24:32.568Z,2.60
2018-09-08T00:26:59.042Z,2.73
2018-09-08T00:29:30.603Z,2.70
2018-09-08T00:31:58.599Z,2.50
2018-09-08T00:34:29.056Z,2.37
2018-09-08T00:36:56.735Z,2.43
2018-09-08T00:39:24.727Z,2.77
2018-09-08T00:41:51.664Z,2.63
2018-09-08T00:44:18.669Z,2.30
2018-09-08T00:46:47.246Z,2.30
2018-09-08T00:49:14.249Z,2.70
2018-09-08T00:51:41.239Z,2.80
2018-09-08T00:54:08.185Z,3.20
2018-09-08T00:56:35.152Z,3.03
2018-09-08T00:59:02.598Z,3.30
2018-09-08T01:01:29.787Z,3.20
2018-09-08T01:03:56.858Z,2.67
2018-09-08T01:06:23.960Z,2.60
2018-09-08T01:08:50.891Z,2.87
2018-09-08T01:11:17.807Z,2.70
2018-09-08T01:13:45.795Z,2.97
2018-09-08T01:16:12.767Z,2.83
2018-09-08T01:18:40.024Z,3.07
2018-09-08T01:21:08.701Z,2.80
2018-09-08T01:23:35.798Z,2.73
2018-09-08T01:26:03.022Z,2.70
2018-09-08T01:28:30.733Z,3.00
2018-09-08T01:30:57.728Z,2.80
2018-09-08T01:33:24.829Z,3.77
2018-09-08T01:35:51.792Z,3.10
2018-09-08T01:38:18.754Z,2.67
2018-09-08T01:40:45.703Z,2.87
2018-09-08T01:43:12.675Z,2.90
2018-09-08T01:45:39.687Z,2.73
2018-09-08T01:48:06.679Z,2.93
2018-09-08T01:50:34.279Z,3.20
2018-09-08T01:53:01.251Z,3.53
2018-09-08T01:55:28.147Z,3.10
2018-09-08T01:57:55.133Z,2.60
2018-09-08T02:00:22.826Z,2.73
2018-09-08T02:02:50.811Z,3.10
2018-09-08T02:05:19.836Z,3.03
2018-09-08T02:07:46.707Z,3.10
2018-09-08T02:10:13.703Z,2.90
2018-09-08T02:12:40.681Z,2.70
2018-09-08T02:15:07.622Z,2.60
2018-09-08T02:17:34.585Z,2.77
2018-09-08T02:20:01.527Z,2.80
2018-09-08T02:22:28.492Z,2.83
2018-09-08T02:24:57.292Z,2.77
2018-09-08T02:27:24.252Z,2.83
2018-09-08T02:29:51.175Z,3.10
2018-09-08T02:32:18.771Z,3.20
2018-09-08T02:34:45.751Z,2.63
2018-09-08T02:37:15.717Z,2.67
2018-09-08T02:39:42.619Z,2.97
2018-09-08T02:42:09.580Z,2.60
2018-09-08T02:44:36.615Z,2.90
2018-09-08T02:47:04.383Z,2.77
2018-09-08T02:50:02.414Z,2.80
2018-09-08T02:52:29.576Z,2.87
2018-09-08T02:54:55.811Z,3.00
2018-09-08T02:57:22.052Z,3.10
2018-09-08T02:59:48.223Z,2.93
2018-09-08T03:02:14.353Z,2.93
2018-09-08T03:04:40.484Z,2.90
2018-09-08T03:07:13.651Z,3.03
2018-09-08T03:09:41.755Z,2.97
2018-09-08T03:12:08.523Z,2.80
2018-09-08T03:14:34.751Z,2.33
2018-09-08T03:17:01.514Z,2.30
2018-09-08T03:19:27.795Z,2.70
2018-09-08T03:21:55.021Z,2.93
2018-09-08T03:24:24.103Z,3.50
2018-09-08T03:26:50.259Z,3.13
2018-09-08T03:29:16.511Z,3.53
2018-09-08T03:31:42.738Z,3.37
2018-09-08T03:34:09.141Z,2.70
2018-09-08T03:36:37.106Z,3.10
2018-09-08T03:39:03.991Z,3.37
2018-09-08T03:41:31.012Z,3.62
2018-09-08T03:43:57.128Z,3.37
2018-09-08T03:46:24.147Z,3.10
2018-09-08T03:48:50.324Z,3.50
2018-09-08T03:51:16.464Z,3.33
2018-09-08T03:53:44.547Z,2.90
2018-09-08T03:56:11.552Z,2.60
2018-09-08T03:58:37.760Z,3.20
2018-09-08T04:01:03.885Z,3.03
2018-09-08T04:03:30.887Z,3.00
2018-09-08T04:05:59.412Z,3.50
2018-09-08T04:08:26.343Z,2.90
2018-09-08T04:10:53.330Z,3.10
2018-09-08T04:13:20.288Z,2.73
2018-09-08T04:15:47.259Z,3.50
2018-09-08T04:18:14.670Z,2.87
2018-09-08T04:20:41.608Z,3.37
2018-09-08T04:23:08.536Z,2.97
2018-09-08T04:25:35.482Z,3.37
2018-09-08T04:28:03.327Z,3.30
2018-09-08T04:30:30.840Z,3.20
2018-09-08T04:32:57.819Z,3.30
2018-09-08T04:35:25.043Z,3.40
2018-09-08T04:37:52.039Z,2.60
2018-09-08T04:40:18.947Z,3.10
2018-09-08T04:42:46.853Z,3.17
2018-09-08T04:45:14.058Z,3.40
2018-09-08T04:47:40.992Z,2.80
2018-09-08T04:50:07.992Z,3.03
2018-09-08T04:52:34.950Z,3.00
2018-09-08T04:55:01.942Z,3.50
2018-09-08T04:57:28.914Z,3.40
2018-09-08T04:59:55.868Z,3.13
2018-09-08T05:02:22.940Z,3.03
2018-09-08T05:04:49.859Z,3.07
2018-09-08T05:07:16.912Z,3.80
2018-09-08T05:09:43.919Z,4.00
2018-09-08T05:12:10.847Z,3.40
2018-09-08T05:14:37.803Z,3.93
2018-09-08T05:17:04.801Z,3.73
2018-09-08T05:19:31.719Z,3.33
2018-09-08T05:21:58.687Z,3.10
2018-09-08T05:24:25.631Z,3.40
2018-09-08T05:26:53.645Z,2.87
2018-09-08T05:29:21.862Z,2.90
2018-09-08T05:31:48.867Z,3.30
2018-09-08T05:34:15.785Z,3.03
2018-09-08T05:36:42.776Z,3.43
2018-09-08T05:39:09.731Z,2.80
2018-09-08T05:41:36.718Z,2.80
2018-09-08T05:44:03.688Z,2.77
2018-09-08T05:46:30.667Z,3.13
2018-09-08T05:48:57.710Z,2.87
2018-09-08T05:51:24.627Z,3.00
2018-09-08T05:53:51.584Z,3.57
2018-09-08T05:56:18.522Z,3.10
2018-09-08T05:58:46.419Z,3.50
2018-09-08T06:01:13.370Z,3.33
2018-09-08T06:03:40.947Z,3.00
2018-09-08T06:06:07.906Z,3.63
2018-09-08T06:08:34.877Z,3.20
2018-09-08T06:11:01.819Z,2.90
2018-09-08T06:13:28.773Z,2.77
2018-09-08T06:15:55.703Z,3.67
2018-09-08T06:18:24.485Z,2.80
2018-09-08T06:20:52.442Z,3.00
2018-09-08T06:23:19.364Z,3.07
2018-09-08T06:25:46.327Z,3.10
2018-09-08T06:28:13.284Z,3.03
2018-09-08T06:30:40.232Z,3.20
2018-09-08T06:33:07.924Z,2.97
2018-09-08T06:35:34.900Z,3.17
2018-09-08T06:38:02.454Z,2.83
2018-09-08T06:40:29.394Z,3.30
2018-09-08T06:42:56.383Z,3.30
2018-09-08T06:45:23.327Z,3.50
2018-09-08T06:47:50.263Z,3.63
2018-09-08T06:50:17.220Z,3.10
2018-09-08T06:52:44.111Z,3.80
2018-09-08T06:55:11.047Z,3.37
2018-09-08T06:57:38.008Z,3.37
2018-09-08T07:00:05.733Z,4.03
2018-09-08T07:02:32.639Z,3.13
2018-09-08T07:04:59.599Z,3.17
2018-09-08T07:07:27.479Z,2.97
2018-09-08T07:09:54.467Z,2.60
2018-09-08T07:12:21.398Z,3.40
2018-09-08T07:14:48.363Z,3.30
2018-09-08T07:17:15.319Z,3.20
2018-09-08T07:19:42.272Z,3.07
2018-09-08T07:22:09.218Z,2.67
2018-09-08T07:24:37.005Z,2.57
2018-09-08T07:27:04.489Z,2.50
2018-09-08T07:29:31.610Z,2.27
2018-09-08T07:31:59.673Z,2.67
2018-09-08T07:34:26.590Z,3.17
2018-09-08T07:36:53.542Z,2.20
2018-09-08T07:39:20.490Z,2.33
2018-09-08T07:41:47.447Z,2.33
2018-09-08T07:44:14.423Z,2.60
2018-09-08T07:46:41.386Z,2.50
2018-09-08T07:49:08.307Z,2.40
2018-09-08T07:51:35.399Z,2.60
2018-09-08T07:54:02.427Z,2.90
2018-09-08T07:56:29.276Z,2.13
2018-09-08T07:58:56.441Z,2.80
2018-09-08T08:01:24.075Z,1.93
2018-09-08T08:03:51.104Z,2.27
2018-09-08T08:06:18.015Z,3.00
2018-09-08T08:08:45.422Z,2.17
2018-09-08T08:11:12.371Z,2.53
2018-09-08T08:13:39.357Z,2.47
2018-09-08T08:16:06.841Z,2.20
2018-09-08T08:18:34.015Z,2.20
2018-09-08T08:21:01.546Z,1.90
2018-09-08T08:23:28.684Z,1.93
2018-09-08T08:25:55.663Z,1.93
2018-09-08T08:28:22.617Z,1.73
2018-09-08T08:30:49.562Z,1.37
2018-09-08T08:33:16.479Z,1.50
2018-09-08T08:35:43.483Z,1.40
2018-09-08T08:38:12.068Z,1.50
2018-09-08T08:40:40.029Z,1.80
2018-09-08T08:43:07.547Z,1.50
2018-09-08T08:45:34.497Z,1.20
2018-09-08T08:48:01.457Z,1.20
2018-09-08T08:50:40.092Z,1.37
2018-09-08T08:53:18.852Z,1.33
2018-09-08T08:55:45.854Z,1.00
2018-09-08T08:58:13.023Z,0.70
2018-09-08T09:00:40.415Z,1.17
2018-09-08T09:03:07.359Z,0.90
2018-09-08T09:05:34.316Z,1.40
2018-09-08T09:08:01.987Z,1.10
2018-09-08T09:10:28.967Z,1.10
2018-09-08T09:12:55.964Z,1.23
2018-09-08T09:15:25.306Z,1.27
2018-09-08T09:17:51.871Z,0.90
2018-09-08T09:20:31.571Z,1.10
2018-09-08T09:23:16.985Z,0.90
2018-09-08T09:25:43.567Z,1.10
2018-09-08T09:28:10.527Z,1.30
2018-09-08T09:30:37.491Z,1.10
2018-09-08T09:33:04.432Z,1.13
2018-09-08T09:35:31.392Z,0.93
2018-09-08T09:37:58.367Z,1.20
2018-09-08T09:40:25.315Z,1.03
2018-09-08T09:42:52.267Z,1.13
2018-09-08T09:45:19.272Z,1.23
2018-09-08T09:47:47.088Z,1.13
2018-09-08T09:50:14.066Z,0.90
2018-09-08T09:52:41.398Z,1.00
2018-09-08T09:55:08.567Z,1.23
2018-09-08T09:57:35.611Z,1.10
2018-09-08T10:00:02.629Z,1.10
2018-09-08T10:02:33.432Z,1.00
2018-09-08T10:05:00.848Z,0.87
2018-09-08T10:07:27.799Z,0.97
2018-09-08T10:09:54.739Z,1.70
2018-09-08T10:12:22.513Z,0.90
2018-09-08T10:14:49.522Z,1.17
2018-09-08T10:17:16.668Z,1.10
2018-09-08T10:19:45.307Z,1.20
2018-09-08T10:22:12.286Z,1.17
2018-09-08T10:24:39.235Z,1.33
2018-09-08T10:27:06.199Z,1.13
2018-09-08T10:29:33.357Z,1.30
2018-09-08T10:32:00.201Z,1.00
2018-09-08T10:34:27.171Z,1.13
2018-09-08T10:36:54.118Z,1.10
2018-09-08T10:39:21.095Z,1.10
2018-09-08T10:41:48.036Z,1.40
2018-09-08T10:44:14.995Z,0.97
2018-09-08T10:46:41.956Z,1.20
2018-09-08T10:49:08.936Z,1.07
2018-09-08T10:52:14.932Z,0.97
2018-09-08T10:54:41.839Z,1.23
2018-09-08T10:57:08.832Z,1.20
2018-09-08T10:59:36.605Z,1.03
2018-09-08T11:02:03.687Z,1.00
2018-09-08T11:04:31.139Z,1.00
2018-09-08T11:06:58.087Z,0.90
2018-09-08T11:09:25.032Z,1.60
2018-09-08T11:11:52.004Z,1.20
2018-09-08T11:14:18.940Z,1.20
2018-09-08T11:16:45.906Z,1.17
2018-09-08T11:19:12.927Z,1.30
2018-09-08T11:21:39.807Z,1.17
2018-09-08T11:24:06.823Z,0.80
2018-09-08T11:26:33.756Z,1.43
2018-09-08T11:29:00.811Z,1.03
2018-09-08T11:31:28.567Z,1.80
2018-09-08T11:33:55.531Z,2.03
2018-09-08T11:36:22.536Z,0.93
2018-09-08T11:38:49.479Z,1.00
2018-09-08T11:41:16.422Z,1.20
2018-09-08T11:43:43.339Z,1.30
2018-09-08T11:46:10.303Z,1.00
2018-09-08T11:48:37.308Z,1.00
2018-09-08T11:51:04.283Z,1.20
2018-09-08T11:53:31.285Z,1.20
2018-09-08T11:55:58.264Z,1.07
2018-09-08T11:58:25.243Z,1.00
2018-09-08T12:00:52.163Z,0.90
2018-09-08T12:03:19.137Z,1.97
2018-09-08T12:05:46.068Z,1.10
2018-09-08T12:08:12.950Z,1.13
2018-09-08T12:10:39.988Z,1.20
2018-09-08T12:13:07.160Z,1.00
2018-09-08T12:15:34.136Z,1.20
2018-09-08T12:18:01.089Z,1.00
2018-09-08T12:20:28.046Z,1.10
2018-09-08T12:22:55.012Z,1.00
2018-09-08T12:25:21.910Z,1.00
2018-09-08T12:27:48.867Z,1.30
2018-09-08T12:30:15.855Z,1.10
2018-09-08T12:32:42.833Z,1.10
2018-09-08T12:35:10.115Z,1.03
2018-09-08T12:37:37.106Z,0.90
2018-09-08T12:40:04.016Z,1.30
2018-09-08T12:42:31.003Z,1.10
2018-09-08T12:45:00.760Z,1.13
2018-09-08T12:47:27.756Z,1.20
2018-09-08T12:49:54.660Z,1.20
2018-09-08T12:52:21.653Z,1.20
2018-09-08T12:54:48.891Z,1.00
2018-09-08T12:57:15.871Z,1.20
2018-09-08T12:59:42.845Z,0.90
2018-09-08T13:02:09.766Z,1.00
2018-09-08T13:04:37.685Z,1.10
2018-09-08T13:07:04.628Z,1.00
2018-09-08T13:09:31.598Z,1.00
2018-09-08T13:11:58.569Z,1.40
2018-09-08T13:14:25.472Z,1.27
2018-09-08T13:16:52.452Z,1.30
2018-09-08T13:19:19.428Z,1.10
2018-09-08T13:21:46.363Z,1.10
2018-09-08T13:24:13.300Z,1.07
2018-09-08T13:26:40.276Z,1.07
2018-09-08T13:29:07.419Z,1.10
2018-09-08T13:31:34.399Z,1.07
2018-09-08T13:34:01.355Z,1.10
2018-09-08T13:36:28.335Z,0.90
2018-09-08T13:38:55.275Z,1.13
2018-09-08T13:41:22.251Z,1.07
2018-09-08T13:43:49.191Z,1.23
2018-09-08T13:46:16.160Z,1.07
2018-09-08T13:48:43.123Z,1.27
2018-09-08T13:51:10.097Z,1.07
2018-09-08T13:53:37.047Z,1.20
2018-09-08T13:56:04.039Z,0.90
2018-09-08T13:58:31.164Z,0.93
2018-09-08T14:00:58.835Z,0.97
2018-09-08T14:03:25.821Z,1.00
2018-09-08T14:05:52.751Z,1.10
2018-09-08T14:08:20.738Z,1.00
2018-09-08T14:10:49.255Z,1.13
2018-09-08T14:13:19.215Z,1.10
2018-09-08T14:15:46.207Z,1.13
2018-09-08T14:18:13.171Z,1.23
2018-09-08T14:20:40.170Z,1.13
2018-09-08T14:23:08.195Z,1.37
2018-09-08T14:25:35.165Z,0.97
2018-09-08T14:28:02.148Z,1.10
2018-09-08T14:30:29.084Z,0.90
2018-09-08T14:32:56.037Z,1.17
2018-09-08T14:35:24.041Z,1.10
2018-09-08T14:37:52.767Z,1.10
2018-09-08T14:40:20.659Z,1.20
2018-09-08T14:42:47.677Z,0.90
2018-09-08T14:45:14.634Z,1.47
2018-09-08T14:47:41.633Z,1.20
2018-09-08T14:50:09.232Z,1.20
2018-09-08T14:52:36.207Z,1.20
2018-09-08T14:55:03.168Z,1.43
2018-09-08T14:57:30.148Z,1.03
2018-09-08T14:59:57.051Z,1.07
2018-09-08T15:02:24.015Z,1.30
2018-09-08T15:04:51.074Z,1.23
2018-09-08T15:07:17.923Z,1.17
2018-09-08T15:09:44.884Z,1.10
2018-09-08T15:12:11.867Z,1.10
2018-09-08T15:14:39.716Z,1.07
2018-09-08T15:17:06.663Z,0.87
2018-09-08T15:19:34.347Z,1.37
2018-09-08T15:22:02.236Z,1.30
2018-09-08T15:24:29.205Z,1.10
2018-09-08T15:26:59.234Z,1.50
2018-09-08T15:29:32.238Z,1.27
2018-09-08T15:31:59.177Z,1.00
2018-09-08T15:34:26.120Z,0.90
2018-09-08T15:36:53.160Z,1.27
2018-09-08T15:39:20.801Z,1.30
2018-09-08T15:41:47.792Z,1.10
2018-09-08T15:44:14.848Z,0.93
2018-09-08T15:46:42.953Z,1.00
2018-09-08T15:49:10.808Z,1.40
2018-09-08T15:51:37.868Z,0.90
2018-09-08T15:54:04.852Z,0.90
2018-09-08T15:56:31.826Z,1.30
2018-09-08T15:58:58.802Z,1.10
2018-09-08T16:01:25.761Z,1.20
2018-09-08T16:03:53.319Z,1.10
2018-09-08T16:06:20.313Z,0.90
2018-09-08T16:08:55.946Z,1.00
2018-09-08T16:11:25.871Z,0.97
2018-09-08T16:13:55.849Z,1.03
2018-09-08T16:16:22.875Z,0.97
2018-09-08T16:18:49.838Z,1.10
2018-09-08T16:21:16.800Z,1.10
2018-09-08T16:23:43.748Z,1.17
2018-09-08T16:26:10.763Z,1.00
2018-09-08T16:28:37.738Z,0.87
2018-09-08T16:31:04.755Z,1.10
2018-09-08T16:33:31.759Z,1.33
2018-09-08T16:35:58.756Z,1.10
2018-09-08T16:38:25.721Z,1.20
2018-09-08T16:40:52.648Z,1.20
2018-09-08T16:43:19.744Z,1.13
2018-09-08T16:45:46.644Z,1.23
2018-09-08T16:48:14.283Z,1.00
2018-09-08T16:50:41.271Z,0.93
2018-09-08T16:53:08.281Z,1.37
2018-09-08T16:55:35.200Z,1.10
2018-09-08T16:58:02.250Z,1.00
2018-09-08T17:00:29.124Z,1.40
2018-09-08T17:02:56.087Z,1.30
2018-09-08T17:05:23.159Z,1.20
2018-09-08T17:07:53.053Z,0.90
2018-09-08T17:10:20.835Z,1.30
2018-09-08T17:12:47.810Z,1.20
2018-09-08T17:15:15.771Z,1.10
2018-09-08T17:17:44.399Z,1.33
2018-09-08T17:20:11.328Z,1.33
2018-09-08T17:22:39.838Z,1.07
2018-09-08T17:25:06.791Z,1.00
2018-09-08T17:27:33.735Z,1.17
2018-09-08T17:30:00.663Z,1.30
2018-09-08T17:32:27.728Z,1.37
2018-09-08T17:34:54.808Z,1.40
2018-09-08T17:37:21.872Z,1.30
2018-09-08T17:39:49.874Z,1.40
2018-09-08T17:42:16.933Z,1.10
2018-09-08T17:44:46.868Z,0.97
2018-09-08T17:47:13.874Z,1.00
2018-09-08T17:49:40.855Z,1.20
2018-09-08T17:52:07.874Z,1.57
2018-09-08T17:54:34.789Z,1.10
2018-09-08T17:57:01.764Z,1.40
2018-09-08T17:59:28.711Z,1.07
2018-09-08T18:01:56.551Z,1.23
2018-09-08T18:04:23.497Z,1.20
2018-09-08T18:06:51.292Z,1.30
2018-09-08T18:09:18.271Z,1.50
2018-09-08T18:11:45.253Z,1.37
2018-09-08T18:14:12.235Z,1.30
2018-09-08T18:16:39.108Z,1.33
2018-09-08T18:19:06.260Z,1.10
2018-09-08T18:21:33.260Z,1.13
2018-09-08T18:24:01.229Z,1.23
2018-09-08T18:26:28.348Z,1.00
2018-09-08T18:28:55.342Z,1.23
2018-09-08T18:31:22.320Z,1.10
2018-09-08T18:33:49.322Z,1.37
2018-09-08T18:36:16.216Z,1.47
2018-09-08T18:38:43.159Z,1.17
2018-09-08T18:41:10.140Z,1.20
2018-09-08T18:43:45.271Z,1.00
2018-09-08T18:46:13.159Z,1.40
2018-09-08T18:48:41.136Z,1.10
2018-09-08T18:51:08.180Z,1.50
2018-09-08T18:53:35.168Z,1.40
2018-09-08T18:56:02.126Z,1.33
2018-09-08T18:58:29.081Z,1.30
2018-09-08T19:00:56.024Z,1.33
2018-09-08T19:03:23.049Z,1.60
2018-09-08T19:05:49.948Z,3.10
2018-09-08T19:08:16.916Z,1.83
2018-09-08T19:10:43.839Z,1.60
2018-09-08T19:13:11.837Z,1.60
2018-09-08T19:15:39.788Z,1.87
2018-09-08T19:18:06.834Z,2.67
2018-09-08T19:20:35.687Z,1.30
2018-09-08T19:23:02.603Z,1.30
2018-09-08T19:25:30.315Z,1.63
2018-09-08T19:27:57.323Z,1.70
2018-09-08T19:30:24.250Z,1.50
2018-09-08T19:32:51.151Z,1.60
2018-09-08T19:35:39.300Z,1.90
2018-09-08T19:38:06.441Z,1.60
2018-09-08T19:40:39.984Z,1.60
2018-09-08T19:43:07.163Z,1.70
2018-09-08T19:45:34.535Z,1.70
2018-09-08T19:48:07.023Z,1.50
2018-09-08T19:50:34.179Z,1.60
2018-09-08T19:53:07.895Z,1.40
2018-09-08T19:55:34.912Z,1.50
2018-09-08T19:58:07.672Z,2.20
2018-09-08T20:00:34.676Z,6.60
2018-09-08T20:03:01.587Z,3.07
2018-09-08T20:05:31.924Z,3.10
2018-09-08T20:07:58.875Z,2.10
2018-09-08T20:10:25.948Z,1.53
2018-09-08T20:12:53.079Z,2.10
2018-09-08T20:15:19.957Z,1.80
2018-09-08T20:17:46.900Z,2.20
2018-09-08T20:20:13.839Z,1.90
2018-09-08T20:22:40.927Z,2.10
2018-09-08T20:25:07.890Z,2.47
2018-09-08T20:27:34.856Z,1.93
2018-09-08T20:30:01.812Z,2.23
2018-09-08T20:32:28.767Z,1.80
2018-09-08T20:34:55.726Z,2.27
2018-09-08T20:37:22.763Z,2.80
2018-09-08T20:39:50.433Z,2.60
2018-09-08T20:42:18.452Z,2.20
2018-09-08T20:44:45.487Z,2.40
2018-09-08T20:47:12.723Z,2.57
2018-09-08T20:49:39.740Z,2.70
2018-09-08T20:52:06.723Z,2.53
2018-09-08T20:54:33.632Z,2.60
2018-09-08T20:57:00.602Z,2.70
2018-09-08T20:59:28.563Z,2.50
2018-09-08T21:01:55.607Z,2.30
2018-09-08T21:04:22.588Z,2.93
2018-09-08T21:06:49.545Z,2.77
2018-09-08T21:09:16.510Z,2.30
2018-09-08T21:11:44.540Z,2.90
2018-09-08T21:14:11.648Z,2.60
2018-09-08T21:16:38.599Z,3.40
2018-09-08T21:19:06.580Z,3.27
2018-09-08T21:21:34.464Z,3.13
2018-09-08T21:24:01.396Z,3.00
2018-09-08T21:26:28.403Z,3.77
2018-09-08T21:28:55.340Z,3.23
2018-09-08T21:31:22.287Z,4.50
2018-09-08T21:33:49.272Z,4.70
2018-09-08T21:36:16.216Z,5.00
2018-09-08T21:38:43.167Z,7.70
2018-09-08T21:41:10.125Z,4.70
2018-09-08T21:43:37.129Z,4.00
2018-09-08T21:46:04.036Z,4.33
2018-09-08T21:48:30.987Z,4.20
2018-09-08T21:50:57.972Z,3.37
2018-09-08T21:53:24.934Z,3.67
2018-09-08T21:55:51.834Z,4.17
2018-09-08T21:58:18.840Z,3.50
2018-09-08T22:00:51.503Z,3.30
2018-09-08T22:03:18.861Z,3.60
2018-09-08T22:05:45.838Z,2.97
2018-09-08T22:08:12.772Z,2.90
2018-09-08T22:10:39.746Z,3.60
2018-09-08T22:13:06.707Z,3.37
2018-09-08T22:15:34.483Z,3.10
2018-09-08T22:18:01.439Z,2.53
2018-09-08T22:20:28.407Z,2.83
2018-09-08T22:22:55.343Z,3.20
2018-09-08T22:25:22.308Z,2.53
2018-09-08T22:27:49.308Z,3.37
2018-09-08T22:30:16.299Z,2.93
2018-09-08T22:32:43.206Z,3.07
2018-09-08T22:35:10.164Z,3.17
2018-09-08T22:37:40.063Z,2.80
2018-09-08T22:40:06.932Z,3.03
2018-09-08T22:42:33.860Z,2.77
2018-09-08T22:45:00.844Z,2.50
2018-09-08T22:47:27.823Z,2.90
2018-09-08T22:49:54.755Z,2.90
2018-09-08T22:52:21.707Z,3.17
2018-09-08T22:54:48.663Z,3.00
2018-09-08T22:57:15.623Z,2.50
2018-09-08T22:59:42.624Z,2.90
2018-09-08T23:02:09.552Z,3.53
2018-09-08T23:04:36.491Z,3.13
2018-09-08T23:07:03.452Z,2.40
2018-09-08T23:09:30.407Z,3.30
2018-09-08T23:11:57.358Z,2.67
2018-09-08T23:14:24.326Z,2.70
2018-09-08T23:16:51.287Z,2.30
2018-09-08T23:19:18.235Z,2.53
2018-09-08T23:21:45.364Z,2.77
2018-09-08T23:24:14.123Z,2.43
2018-09-08T23:26:41.031Z,2.33
2018-09-08T23:29:07.983Z,2.97
2018-09-08T23:31:34.872Z,2.37
2018-09-08T23:34:01.836Z,2.00
2018-09-08T23:36:28.783Z,2.93
2018-09-08T23:38:55.740Z,2.43
2018-09-08T23:41:22.696Z,2.17
2018-09-08T23:43:49.791Z,2.27
2018-09-08T23:46:16.718Z,2.53
2018-09-08T23:48:44.703Z,2.60
2018-09-08T23:51:13.719Z,2.80
2018-09-08T23:53:40.671Z,2.33
2018-09-08T23:56:07.631Z,2.27
2018-09-08T23:58:35.624Z,2.50
